createdAt,value
2019-03-17T00:02:07.067Z,99386.78
2019-03-17T00:04:37.548Z,99385.42
2019-03-17T00:07:07.582Z,99383.00
2019-03-17T00:09:36.322Z,99372.83
2019-03-17T00:12:05.798Z,99374.75
2019-03-17T00:14:35.703Z,99371.91
2019-03-17T00:17:05.260Z,99372.70
2019-03-17T00:19:35.072Z,99362.98
2019-03-17T00:22:07.345Z,99366.48
2019-03-17T00:24:44.708Z,99363.20
2019-03-17T00:27:14.483Z,99359.49
2019-03-17T00:29:43.348Z,99350.72
2019-03-17T00:32:12.768Z,99352.05
2019-03-17T00:34:44.637Z,99354.11
2019-03-17T00:37:13.919Z,99343.66
2019-03-17T00:39:42.795Z,99346.14
2019-03-17T00:42:11.694Z,99339.34
2019-03-17T00:44:40.300Z,99336.58
2019-03-17T00:47:10.758Z,99340.33
2019-03-17T00:49:39.250Z,99332.55
2019-03-17T00:52:07.833Z,99327.19
2019-03-17T00:54:36.426Z,99327.41
2019-03-17T00:57:05.090Z,99326.99
2019-03-17T00:59:33.689Z,99319.69
2019-03-17T01:02:02.395Z,99320.01
2019-03-17T01:04:31.090Z,99313.14
2019-03-17T01:06:59.707Z,99306.70
2019-03-17T01:09:28.339Z,99295.70
2019-03-17T01:11:56.932Z,99292.66
2019-03-17T01:14:25.544Z,99288.24
2019-03-17T01:16:54.171Z,99291.55
2019-03-17T01:19:22.765Z,99292.08
2019-03-17T01:21:51.371Z,99279.80
2019-03-17T01:24:19.985Z,99282.08
2019-03-17T01:26:48.600Z,99275.92
2019-03-17T01:29:17.219Z,99268.80
2019-03-17T01:31:45.845Z,99274.58
2019-03-17T01:34:14.434Z,99275.34
2019-03-17T01:36:43.041Z,99271.56
2019-03-17T01:39:11.634Z,99264.05
2019-03-17T01:41:40.236Z,99255.95
2019-03-17T01:44:08.834Z,99256.95
2019-03-17T01:46:37.452Z,99252.73
2019-03-17T01:49:06.062Z,99246.03
2019-03-17T01:51:34.747Z,99244.13
2019-03-17T01:54:03.336Z,99244.38
2019-03-17T01:56:31.944Z,99242.06
2019-03-17T01:59:00.617Z,99241.02
2019-03-17T02:01:29.228Z,99231.77
2019-03-17T02:03:57.945Z,99230.08
2019-03-17T02:06:26.562Z,99231.09
2019-03-17T02:08:55.155Z,99215.59
2019-03-17T02:11:23.826Z,99222.16
2019-03-17T02:13:52.430Z,99206.84
2019-03-17T02:16:21.050Z,99206.80
2019-03-17T02:18:49.682Z,99203.86
2019-03-17T02:21:18.291Z,99202.20
2019-03-17T02:23:46.924Z,99199.81
2019-03-17T02:26:15.524Z,99197.61
2019-03-17T02:28:44.120Z,99195.25
2019-03-17T02:31:12.716Z,99193.83
2019-03-17T02:33:41.345Z,99195.02
2019-03-17T02:36:09.950Z,99184.20
2019-03-17T02:38:38.559Z,99180.84
2019-03-17T02:41:07.620Z,99170.13
2019-03-17T02:43:36.295Z,99170.64
2019-03-17T02:46:04.977Z,99178.05
2019-03-17T02:48:33.727Z,99170.81
2019-03-17T02:51:02.347Z,99173.84
2019-03-17T02:53:30.965Z,99174.73
2019-03-17T02:55:59.594Z,99178.13
2019-03-17T02:58:28.215Z,99168.11
2019-03-17T03:00:56.842Z,99167.45
2019-03-17T03:03:25.438Z,99153.60
2019-03-17T03:05:55.622Z,99158.57
2019-03-17T03:08:24.470Z,99142.75
2019-03-17T03:10:53.061Z,99136.08
2019-03-17T03:13:21.705Z,99138.16
2019-03-17T03:15:50.294Z,99141.88
2019-03-17T03:18:18.915Z,99144.23
2019-03-17T03:20:47.542Z,99141.10
2019-03-17T03:23:16.115Z,99147.63
2019-03-17T03:25:44.730Z,99136.16
2019-03-17T03:28:13.320Z,99142.61
2019-03-17T03:30:41.941Z,99151.44
2019-03-17T03:33:10.560Z,99155.18
2019-03-17T03:35:39.165Z,99149.14
2019-03-17T03:38:07.745Z,99151.64
2019-03-17T03:40:36.417Z,99146.52
2019-03-17T03:43:05.905Z,99152.51
2019-03-17T03:45:34.501Z,99154.63
2019-03-17T03:48:03.125Z,99148.10
2019-03-17T03:50:31.721Z,99153.20
2019-03-17T03:53:00.363Z,99152.05
2019-03-17T03:55:28.971Z,99144.55
2019-03-17T03:57:57.576Z,99154.53
2019-03-17T04:00:26.208Z,99147.86
2019-03-17T04:02:55.049Z,99151.95
2019-03-17T04:05:23.801Z,99143.50
2019-03-17T04:07:52.397Z,99146.25
2019-03-17T04:10:21.017Z,99141.97
2019-03-17T04:12:49.645Z,99139.95
2019-03-17T04:15:18.274Z,99131.21
2019-03-17T04:17:46.882Z,99135.72
2019-03-17T04:20:15.505Z,99129.88
2019-03-17T04:22:44.132Z,99129.14
2019-03-17T04:25:16.147Z,99123.86
2019-03-17T04:27:44.760Z,99120.81
2019-03-17T04:30:13.467Z,99117.78
2019-03-17T04:32:42.114Z,99122.38
2019-03-17T04:35:10.775Z,99120.95
2019-03-17T04:37:39.411Z,99112.54
2019-03-17T04:40:08.244Z,99111.48
2019-03-17T04:42:36.958Z,99112.31
2019-03-17T04:45:05.883Z,99116.77
2019-03-17T04:47:34.498Z,99110.38
2019-03-17T04:50:03.180Z,99111.29
2019-03-17T04:52:31.761Z,99104.91
2019-03-17T04:55:00.401Z,99107.09
2019-03-17T04:57:29.009Z,99105.22
2019-03-17T04:59:57.589Z,99105.22
2019-03-17T05:02:26.204Z,99114.12
2019-03-17T05:04:54.809Z,99115.75
2019-03-17T05:07:23.409Z,99106.21
2019-03-17T05:09:51.996Z,99106.95
2019-03-17T05:12:20.606Z,99110.50
2019-03-17T05:14:49.221Z,99108.79
2019-03-17T05:17:17.844Z,99105.47
2019-03-17T05:19:46.431Z,99110.38
2019-03-17T05:22:15.058Z,99112.31
2019-03-17T05:24:43.674Z,99116.17
2019-03-17T05:27:12.263Z,99112.02
2019-03-17T05:29:40.947Z,99112.30
2019-03-17T05:32:09.581Z,99110.77
2019-03-17T05:34:38.254Z,99119.81
2019-03-17T05:37:07.129Z,99118.40
2019-03-17T05:39:35.868Z,99119.16
2019-03-17T05:42:04.471Z,99119.47
2019-03-17T05:44:33.104Z,99117.63
2019-03-17T05:47:01.765Z,99111.08
2019-03-17T05:49:30.408Z,99109.46
2019-03-17T05:51:59.016Z,99110.41
2019-03-17T05:54:27.637Z,99109.97
2019-03-17T05:56:56.264Z,99113.83
2019-03-17T05:59:24.867Z,99114.50
2019-03-17T06:01:53.464Z,99114.63
2019-03-17T06:04:22.145Z,99093.42
2019-03-17T06:06:50.726Z,99087.25
2019-03-17T06:09:19.356Z,99096.91
2019-03-17T06:11:47.963Z,99096.17
2019-03-17T06:14:16.598Z,99113.73
2019-03-17T06:16:45.217Z,99119.83
2019-03-17T06:19:13.843Z,99118.77
2019-03-17T06:21:42.450Z,99122.34
2019-03-17T06:24:11.136Z,99129.54
2019-03-17T06:26:39.787Z,99129.47
2019-03-17T06:29:08.392Z,99129.66
2019-03-17T06:31:37.012Z,99132.88
2019-03-17T06:34:05.628Z,99138.12
2019-03-17T06:36:34.221Z,99123.22
2019-03-17T06:39:03.142Z,99119.59
2019-03-17T06:41:31.792Z,99128.25
2019-03-17T06:44:00.422Z,99124.55
2019-03-17T06:46:29.027Z,99126.72
2019-03-17T06:48:57.722Z,99137.25
2019-03-17T06:51:26.361Z,99154.70
2019-03-17T06:53:56.690Z,99150.10
2019-03-17T06:56:25.440Z,99153.64
2019-03-17T06:58:54.068Z,99153.41
2019-03-17T07:01:22.663Z,99162.56
2019-03-17T07:03:51.300Z,99160.77
2019-03-17T07:06:19.883Z,99153.25
2019-03-17T07:08:48.539Z,99150.19
2019-03-17T07:11:17.152Z,99157.22
2019-03-17T07:13:45.788Z,99149.45
2019-03-17T07:16:14.431Z,99153.87
2019-03-17T07:18:43.124Z,99143.88
2019-03-17T07:21:11.746Z,99139.42
2019-03-17T07:23:40.348Z,99132.64
2019-03-17T07:26:08.942Z,99124.61
2019-03-17T07:28:37.576Z,99138.16
2019-03-17T07:31:06.175Z,99131.81
2019-03-17T07:33:34.804Z,99130.48
2019-03-17T07:36:03.436Z,99135.59
2019-03-17T07:38:32.119Z,99126.53
2019-03-17T07:41:00.801Z,99135.90
2019-03-17T07:43:29.480Z,99143.34
2019-03-17T07:46:00.032Z,99152.95
2019-03-17T07:48:31.270Z,99157.73
2019-03-17T07:51:00.439Z,99165.16
2019-03-17T07:53:29.635Z,99171.50
2019-03-17T07:55:59.418Z,99164.02
2019-03-17T07:58:30.158Z,99161.12
2019-03-17T08:01:02.373Z,99178.57
2019-03-17T08:03:33.549Z,99177.86
2019-03-17T08:06:02.369Z,99177.27
2019-03-17T08:08:32.830Z,99170.80
2019-03-17T08:11:02.796Z,99170.22
2019-03-17T08:13:34.724Z,99169.16
2019-03-17T08:16:03.855Z,99173.26
2019-03-17T08:18:33.880Z,99184.30
2019-03-17T08:21:03.165Z,99184.59
2019-03-17T08:23:44.857Z,99193.59
2019-03-17T08:26:17.905Z,99204.48
2019-03-17T08:28:49.373Z,99201.02
2019-03-17T08:31:21.190Z,99200.80
2019-03-17T08:33:56.729Z,99194.80
2019-03-17T08:36:29.627Z,99192.45
2019-03-17T08:38:58.764Z,99179.13
2019-03-17T08:41:29.792Z,99187.62
2019-03-17T08:44:04.900Z,99198.80
2019-03-17T08:46:33.351Z,99203.03
2019-03-17T08:49:01.958Z,99205.78
2019-03-17T08:51:30.704Z,99219.37
2019-03-17T08:53:59.257Z,99221.81
2019-03-17T08:56:27.901Z,99222.02
2019-03-17T08:58:56.517Z,99221.81
2019-03-17T09:01:25.190Z,99234.84
2019-03-17T09:03:53.831Z,99240.33
2019-03-17T09:06:22.501Z,99233.94
2019-03-17T09:08:51.100Z,99236.92
2019-03-17T09:11:19.795Z,99235.07
2019-03-17T09:13:48.400Z,99245.25
2019-03-17T09:16:17.059Z,99239.70
2019-03-17T09:18:45.687Z,99235.99
2019-03-17T09:21:14.300Z,99232.88
2019-03-17T09:23:42.922Z,99228.41
2019-03-17T09:26:11.517Z,99234.86
2019-03-17T09:28:40.108Z,99238.20
2019-03-17T09:31:08.736Z,99239.33
2019-03-17T09:33:37.344Z,99246.52
2019-03-17T09:36:06.019Z,99244.31
2019-03-17T09:38:46.466Z,99244.08
2019-03-17T09:41:05.163Z,99247.34
2019-03-17T09:43:33.792Z,99247.28
2019-03-17T09:46:02.395Z,99249.42
2019-03-17T09:48:31.036Z,99246.91
2019-03-17T09:50:59.689Z,99260.43
2019-03-17T09:53:28.696Z,99268.20
2019-03-17T09:55:57.519Z,99259.36
2019-03-17T09:58:26.166Z,99256.21
2019-03-17T10:00:54.833Z,99257.72
2019-03-17T10:03:23.478Z,99258.02
2019-03-17T10:05:52.111Z,99261.44
2019-03-17T10:08:20.774Z,99260.49
2019-03-17T10:10:49.391Z,99251.86
2019-03-17T10:13:18.022Z,99263.66
2019-03-17T10:15:49.659Z,99259.13
2019-03-17T10:18:18.308Z,99250.55
2019-03-17T10:20:46.913Z,99249.64
2019-03-17T10:23:15.544Z,99240.44
2019-03-17T10:25:44.338Z,99241.56
2019-03-17T10:28:12.985Z,99237.23
2019-03-17T10:30:41.646Z,99232.95
2019-03-17T10:33:10.272Z,99235.23
2019-03-17T10:35:38.861Z,99238.42
2019-03-17T10:38:07.533Z,99237.31
2019-03-17T10:40:36.165Z,99238.29
2019-03-17T10:43:05.110Z,99245.03
2019-03-17T10:45:33.729Z,99244.36
2019-03-17T10:48:02.481Z,99246.85
2019-03-17T10:50:31.120Z,99238.96
2019-03-17T10:52:59.861Z,99236.11
2019-03-17T10:55:28.597Z,99249.36
2019-03-17T10:57:57.265Z,99248.74
2019-03-17T11:00:25.946Z,99247.01
2019-03-17T11:02:54.676Z,99259.31
2019-03-17T11:05:23.338Z,99261.54
2019-03-17T11:07:51.985Z,99264.89
2019-03-17T11:10:20.757Z,99256.52
2019-03-17T11:12:49.395Z,99282.44
2019-03-17T11:15:18.104Z,99280.62
2019-03-17T11:17:46.792Z,99290.24
2019-03-17T11:20:15.497Z,99299.16
2019-03-17T11:22:44.180Z,99295.00
2019-03-17T11:25:12.890Z,99288.14
2019-03-17T11:27:41.513Z,99284.64
2019-03-17T11:30:10.935Z,99279.31
2019-03-17T11:32:39.583Z,99299.95
2019-03-17T11:35:08.335Z,99335.71
2019-03-17T11:37:36.968Z,99372.30
2019-03-17T11:40:06.311Z,99371.95
2019-03-17T11:42:34.965Z,99397.11
2019-03-17T11:45:03.866Z,99389.33
2019-03-17T11:47:32.603Z,99384.41
2019-03-17T11:50:01.253Z,99391.74
2019-03-17T11:52:29.923Z,99391.16
2019-03-17T11:54:58.552Z,99396.75
2019-03-17T11:57:27.207Z,99390.19
2019-03-17T11:59:55.808Z,99386.18
2019-03-17T12:02:26.846Z,99389.61
2019-03-17T12:04:54.750Z,99403.55
2019-03-17T12:07:23.447Z,99401.05
2019-03-17T12:09:52.065Z,99408.94
2019-03-17T12:12:20.678Z,99418.33
2019-03-17T12:14:49.348Z,99429.20
2019-03-17T12:17:18.019Z,99442.92
2019-03-17T12:19:46.617Z,99450.18
2019-03-17T12:22:15.219Z,99444.45
2019-03-17T12:24:43.893Z,99463.80
2019-03-17T12:27:12.496Z,99448.16
2019-03-17T12:29:41.121Z,99455.81
2019-03-17T12:32:09.727Z,99450.08
2019-03-17T12:34:38.339Z,99443.11
2019-03-17T12:37:06.961Z,99441.78
2019-03-17T12:39:35.623Z,99462.85
2019-03-17T12:42:04.259Z,99457.23
2019-03-17T12:44:32.872Z,99468.32
2019-03-17T12:47:01.522Z,99465.58
2019-03-17T12:49:30.260Z,99457.67
2019-03-17T12:51:58.957Z,99448.19
2019-03-17T12:54:27.681Z,99442.09
2019-03-17T12:56:56.271Z,99426.18
2019-03-17T12:59:24.904Z,99420.88
2019-03-17T13:01:53.593Z,99426.80
2019-03-17T13:04:22.312Z,99446.78
2019-03-17T13:06:50.930Z,99440.05
2019-03-17T13:09:19.594Z,99435.44
2019-03-17T13:11:48.191Z,99431.91
2019-03-17T13:14:16.912Z,99432.22
2019-03-17T13:16:45.544Z,99435.70
2019-03-17T13:19:14.159Z,99440.83
2019-03-17T13:21:42.767Z,99435.00
2019-03-17T13:24:11.405Z,99438.98
2019-03-17T13:26:40.009Z,99435.41
2019-03-17T13:29:08.662Z,99439.70
2019-03-17T13:31:37.291Z,99445.22
2019-03-17T13:34:05.930Z,99443.89
2019-03-17T13:36:34.562Z,99448.61
2019-03-17T13:39:04.296Z,99452.10
2019-03-17T13:41:32.926Z,99451.83
2019-03-17T13:44:01.547Z,99447.70
2019-03-17T13:46:30.164Z,99451.30
2019-03-17T13:48:58.787Z,99459.30
2019-03-17T13:51:27.407Z,99470.13
2019-03-17T13:53:56.040Z,99473.93
2019-03-17T13:56:24.690Z,99488.06
2019-03-17T13:58:53.323Z,99494.11
2019-03-17T14:01:21.985Z,99483.16
2019-03-17T14:03:50.812Z,99484.14
2019-03-17T14:06:19.424Z,99468.42
2019-03-17T14:08:48.005Z,99475.80
2019-03-17T14:11:16.642Z,99464.73
2019-03-17T14:13:45.248Z,99471.38
2019-03-17T14:16:15.733Z,99467.18
2019-03-17T14:18:44.195Z,99479.08
2019-03-17T14:21:12.845Z,99489.00
2019-03-17T14:23:41.495Z,99483.08
2019-03-17T14:26:10.218Z,99488.19
2019-03-17T14:28:38.814Z,99472.11
2019-03-17T14:31:16.424Z,99480.19
2019-03-17T14:33:45.711Z,99483.73
2019-03-17T14:36:14.580Z,99487.03
2019-03-17T14:38:47.246Z,99495.57
2019-03-17T14:41:16.452Z,99484.24
2019-03-17T14:43:46.969Z,99496.28
2019-03-17T14:46:16.431Z,99483.13
2019-03-17T14:48:47.063Z,99472.56
2019-03-17T14:51:18.615Z,99481.30
2019-03-17T14:53:49.137Z,99478.45
2019-03-17T14:56:18.943Z,99476.93
2019-03-17T14:58:56.461Z,99490.89
2019-03-17T15:01:36.671Z,99499.00
2019-03-17T15:04:10.626Z,99502.69
2019-03-17T15:06:40.407Z,99516.02
2019-03-17T15:09:09.073Z,99522.88
2019-03-17T15:11:41.186Z,99522.73
2019-03-17T15:14:12.577Z,99515.38
2019-03-17T15:17:08.710Z,99506.52
2019-03-17T15:19:43.858Z,99494.55
2019-03-17T15:22:14.788Z,99495.69
2019-03-17T15:24:45.689Z,99493.27
2019-03-17T15:27:15.783Z,99500.39
2019-03-17T15:29:44.949Z,99497.59
2019-03-17T15:32:13.879Z,99504.50
2019-03-17T15:34:42.878Z,99505.77
2019-03-17T15:37:11.637Z,99518.95
2019-03-17T15:39:41.034Z,99505.21
2019-03-17T15:42:12.472Z,99517.45
2019-03-17T15:44:41.839Z,99519.30
2019-03-17T15:47:11.412Z,99513.58
2019-03-17T15:49:48.282Z,99518.48
2019-03-17T15:52:17.188Z,99518.91
2019-03-17T15:54:46.221Z,99512.24
2019-03-17T15:57:15.941Z,99524.42
2019-03-17T15:59:48.632Z,99519.09
2019-03-17T16:02:21.005Z,99517.53
2019-03-17T16:04:53.060Z,99508.53
2019-03-17T16:07:21.988Z,99505.75
2019-03-17T16:09:58.439Z,99521.64
2019-03-17T16:12:30.276Z,99520.24
2019-03-17T16:15:12.199Z,99540.87
2019-03-17T16:17:41.239Z,99548.48
2019-03-17T16:20:11.872Z,99551.44
2019-03-17T16:22:40.681Z,99583.88
2019-03-17T16:25:09.925Z,99581.20
2019-03-17T16:27:38.652Z,99589.17
2019-03-17T16:30:10.762Z,99577.05
2019-03-17T16:32:39.572Z,99594.86
2019-03-17T16:35:08.404Z,99587.39
2019-03-17T16:37:37.172Z,99585.19
2019-03-17T16:40:07.525Z,99591.13
2019-03-17T16:45:11.319Z,99604.75
2019-03-17T16:47:39.999Z,99619.09
2019-03-17T16:50:10.628Z,99626.20
2019-03-17T16:52:39.545Z,99638.10
2019-03-17T16:55:11.290Z,99642.75
2019-03-17T16:57:38.838Z,99653.72
2019-03-17T17:00:09.360Z,99653.91
2019-03-17T17:02:38.307Z,99652.84
2019-03-17T17:05:07.968Z,99658.94
2019-03-17T17:07:36.707Z,99661.68
2019-03-17T17:10:08.583Z,99661.31
2019-03-17T17:12:37.342Z,99666.77
2019-03-17T17:15:08.938Z,99670.88
2019-03-17T17:17:37.973Z,99671.00
2019-03-17T17:20:08.283Z,99677.95
2019-03-17T17:22:37.032Z,99678.58
2019-03-17T17:25:17.204Z,99698.02
2019-03-17T17:27:45.996Z,99709.74
2019-03-17T17:30:16.944Z,99719.23
2019-03-17T17:32:45.744Z,99722.27
2019-03-17T17:35:14.816Z,99734.64
2019-03-17T17:37:44.191Z,99732.16
2019-03-17T17:40:14.510Z,99739.22
2019-03-17T17:42:43.319Z,99745.31
2019-03-17T17:45:13.907Z,99745.72
2019-03-17T17:47:43.010Z,99756.45
2019-03-17T17:50:13.213Z,99755.17
2019-03-17T17:52:42.496Z,99770.95
2019-03-17T17:55:34.411Z,99768.09
2019-03-17T17:58:06.410Z,99769.84
2019-03-17T18:00:41.426Z,99769.64
2019-03-17T18:03:11.305Z,99765.02
2019-03-17T18:05:40.580Z,99773.08
2019-03-17T18:08:09.322Z,99781.13
2019-03-17T18:10:39.419Z,99789.18
2019-03-17T18:13:11.992Z,99797.63
2019-03-17T18:15:43.667Z,99798.77
2019-03-17T18:18:17.026Z,99808.27
2019-03-17T18:21:07.472Z,99804.78
2019-03-17T18:23:36.605Z,99806.68
2019-03-17T18:26:15.771Z,99811.67
2019-03-17T18:28:47.227Z,99818.15
2019-03-17T18:31:16.221Z,99824.36
2019-03-17T18:33:46.210Z,99822.41
2019-03-17T18:36:16.564Z,99826.13
2019-03-17T18:38:45.713Z,99837.47
2019-03-17T18:41:16.795Z,99838.53
2019-03-17T18:43:47.208Z,99848.66
2019-03-17T18:46:37.047Z,99844.72
2019-03-17T18:49:06.530Z,99845.55
2019-03-17T18:51:36.863Z,99858.66
2019-03-17T18:54:06.625Z,99871.37
2019-03-17T18:57:01.215Z,99873.78
2019-03-17T18:59:31.084Z,99873.87
2019-03-17T19:02:00.818Z,99869.27
2019-03-17T19:04:31.173Z,99881.44
2019-03-17T19:07:03.212Z,99888.77
2019-03-17T19:09:35.822Z,99892.45
2019-03-17T19:12:06.714Z,99887.83
2019-03-17T19:14:37.281Z,99895.23
2019-03-17T19:17:07.937Z,99903.86
2019-03-17T19:19:42.804Z,99914.09
2019-03-17T19:22:17.215Z,99918.92
2019-03-17T19:24:46.215Z,99916.30
2019-03-17T19:27:19.102Z,99916.85
2019-03-17T19:29:54.422Z,99914.48
2019-03-17T19:32:29.512Z,99932.59
2019-03-17T19:35:00.042Z,99935.16
2019-03-17T19:37:33.889Z,99941.22
2019-03-17T19:40:07.739Z,99944.11
2019-03-17T19:42:57.526Z,99950.64
2019-03-17T19:45:17.483Z,99952.17
2019-03-17T19:47:50.706Z,99961.77
2019-03-17T19:50:20.017Z,99959.61
2019-03-17T19:52:49.861Z,99968.70
2019-03-17T19:55:24.553Z,99965.94
2019-03-17T19:57:55.515Z,99966.67
2019-03-17T20:00:27.721Z,99979.80
2019-03-17T20:02:57.604Z,99979.27
2019-03-17T20:05:28.617Z,99975.77
2019-03-17T20:08:08.569Z,99982.95
2019-03-17T20:10:41.155Z,99989.32
2019-03-17T20:13:22.206Z,99994.21
2019-03-17T20:15:53.399Z,99997.59
2019-03-17T20:18:24.987Z,100031.77
2019-03-17T20:20:57.283Z,100035.21
2019-03-17T20:23:27.336Z,100048.11
2019-03-17T20:25:56.220Z,100043.10
2019-03-17T20:28:26.915Z,100049.65
2019-03-17T20:30:58.357Z,100048.66
2019-03-17T20:33:30.328Z,100075.55
2019-03-17T20:36:01.157Z,100082.05
2019-03-17T20:38:31.123Z,100097.39
2019-03-17T20:41:00.937Z,100093.80
2019-03-17T20:43:35.395Z,100111.56
2019-03-17T20:46:05.408Z,100127.12
2019-03-17T20:48:35.837Z,100142.33
2019-03-17T20:51:14.271Z,100143.97
2019-03-17T20:53:44.814Z,100139.30
2019-03-17T20:56:19.042Z,100143.11
2019-03-17T20:58:53.585Z,100141.92
2019-03-17T21:01:24.067Z,100157.47
2019-03-17T21:03:53.412Z,100157.46
2019-03-17T21:06:26.818Z,100152.37
2019-03-17T21:08:56.586Z,100167.36
2019-03-17T21:11:26.599Z,100174.16
2019-03-17T21:13:56.065Z,100181.33
2019-03-17T21:16:26.290Z,100191.95
2019-03-17T21:19:07.702Z,100199.06
2019-03-17T21:21:41.653Z,100199.77
2019-03-17T21:24:11.190Z,100212.33
2019-03-17T21:26:42.425Z,100212.28
2019-03-17T21:29:12.844Z,100213.12
2019-03-17T21:31:42.811Z,100217.50
2019-03-17T21:34:19.990Z,100226.14
2019-03-17T21:36:49.111Z,100211.58
2019-03-17T21:39:21.615Z,100217.22
2019-03-17T21:41:51.883Z,100206.80
2019-03-17T21:44:28.828Z,100200.02
2019-03-17T21:47:15.504Z,100194.72
2019-03-17T21:49:46.113Z,100181.61
2019-03-17T21:52:18.755Z,100191.33
2019-03-17T21:54:48.403Z,100176.28
2019-03-17T21:57:28.685Z,100165.00
2019-03-17T22:00:00.704Z,100153.77
2019-03-17T22:02:31.802Z,100152.56
2019-03-17T22:05:04.669Z,100163.45
2019-03-17T22:07:34.842Z,100171.32
2019-03-17T22:10:22.960Z,100171.25
2019-03-17T22:12:54.941Z,100170.38
2019-03-17T22:15:26.535Z,100174.62
2019-03-17T22:17:55.648Z,100175.64
2019-03-17T22:20:26.892Z,100180.73
2019-03-17T22:22:57.118Z,100176.03
2019-03-17T22:25:30.519Z,100175.55
2019-03-17T22:28:08.210Z,100176.14
2019-03-17T22:30:34.297Z,100175.17
2019-03-17T22:33:15.854Z,100176.45
2019-03-17T22:35:47.812Z,100174.23
2019-03-17T22:38:17.856Z,100183.81
2019-03-17T22:40:50.450Z,100188.55
2019-03-17T22:43:22.581Z,100195.52
2019-03-17T22:45:56.058Z,100192.48
2019-03-17T22:48:44.492Z,100191.11
2019-03-17T22:51:15.132Z,100195.12
2019-03-17T22:53:44.789Z,100203.25
2019-03-17T22:56:21.012Z,100218.52
2019-03-17T22:58:52.560Z,100218.30
2019-03-17T23:01:24.431Z,100218.84
2019-03-17T23:03:54.038Z,100222.30
2019-03-17T23:06:24.327Z,100215.85
2019-03-17T23:08:55.547Z,100220.10
2019-03-17T23:11:27.365Z,100221.13
2019-03-17T23:13:59.527Z,100220.39
2019-03-17T23:16:29.337Z,100220.30
2019-03-17T23:18:59.214Z,100223.36
2019-03-17T23:21:28.012Z,100223.84
2019-03-17T23:23:57.744Z,100215.95
2019-03-17T23:26:26.398Z,100207.50
2019-03-17T23:28:55.154Z,100206.54
2019-03-17T23:31:26.690Z,100213.11
2019-03-17T23:34:12.718Z,100217.16
2019-03-17T23:36:49.218Z,100212.08
2019-03-17T23:39:18.281Z,100205.80
2019-03-17T23:41:59.932Z,100213.72
2019-03-17T23:44:48.527Z,100205.15
2019-03-17T23:47:14.694Z,100194.36
2019-03-17T23:49:48.092Z,100207.92
2019-03-17T23:52:21.359Z,100218.36
2019-03-17T23:54:51.429Z,100219.92
2019-03-17T23:57:21.780Z,100219.55
2019-03-17T23:59:51.266Z,100225.48
